createdAt,value
2018-09-14T00:00:04.190Z,0.00
2018-09-14T00:01:04.124Z,0.00
2018-09-14T00:02:04.129Z,0.00
2018-09-14T00:03:04.191Z,0.00
2018-09-14T00:04:04.120Z,0.00
2018-09-14T00:05:04.121Z,0.00
2018-09-14T00:06:04.127Z,0.00
2018-09-14T00:07:04.141Z,0.00
2018-09-14T00:08:04.240Z,0.00
2018-09-14T00:09:04.178Z,0.00
2018-09-14T00:10:04.275Z,0.00
2018-09-14T00:11:04.145Z,0.00
2018-09-14T00:12:04.110Z,0.20
2018-09-14T00:13:04.154Z,0.20
2018-09-14T00:14:04.305Z,0.00
2018-09-14T00:15:04.168Z,0.20
2018-09-14T00:16:04.210Z,0.50
2018-09-14T00:17:04.132Z,0.40
2018-09-14T00:18:04.249Z,0.10
2018-09-14T00:19:04.129Z,0.10
2018-09-14T00:20:04.245Z,0.00
2018-09-14T00:21:04.190Z,0.00
2018-09-14T00:22:04.174Z,0.00
2018-09-14T00:23:04.175Z,0.00
2018-09-14T00:24:04.240Z,0.00
2018-09-14T00:25:04.196Z,0.00
2018-09-14T00:26:04.192Z,0.00
2018-09-14T00:27:04.142Z,0.00
2018-09-14T00:28:04.146Z,0.00
2018-09-14T00:29:04.155Z,0.00
2018-09-14T00:30:04.145Z,0.00
2018-09-14T00:31:04.227Z,0.00
2018-09-14T00:32:04.144Z,0.10
2018-09-14T00:33:04.143Z,0.00
2018-09-14T00:34:04.217Z,0.30
2018-09-14T00:35:04.190Z,0.00
2018-09-14T00:36:04.163Z,0.00
2018-09-14T00:37:04.186Z,0.00
2018-09-14T00:38:04.244Z,0.50
2018-09-14T00:39:04.128Z,0.00
2018-09-14T00:40:04.288Z,0.00
2018-09-14T00:41:04.240Z,0.00
2018-09-14T00:42:04.288Z,0.00
2018-09-14T00:43:04.200Z,0.00
2018-09-14T00:44:04.170Z,0.20
2018-09-14T00:45:04.206Z,0.40
2018-09-14T00:46:04.161Z,0.20
2018-09-14T00:47:04.246Z,0.10
2018-09-14T00:48:04.245Z,0.40
2018-09-14T00:49:04.117Z,0.00
2018-09-14T00:50:04.166Z,0.20
2018-09-14T00:51:04.171Z,0.00
2018-09-14T00:52:04.184Z,0.40
2018-09-14T00:53:04.170Z,0.00
2018-09-14T00:54:04.250Z,0.00
2018-09-14T00:55:04.229Z,0.40
2018-09-14T00:56:04.192Z,0.00
2018-09-14T00:57:04.253Z,0.00
2018-09-14T00:58:04.210Z,0.00
2018-09-14T00:59:04.185Z,0.00
2018-09-14T01:00:04.171Z,0.00
2018-09-14T01:01:04.190Z,0.00
2018-09-14T01:02:04.142Z,0.00
2018-09-14T01:03:04.260Z,0.00
2018-09-14T01:04:04.257Z,0.00
2018-09-14T01:05:04.199Z,1.10
2018-09-14T01:06:04.187Z,0.40
2018-09-14T01:07:04.176Z,0.50
2018-09-14T01:08:04.309Z,0.20
2018-09-14T01:09:04.289Z,0.40
2018-09-14T01:10:04.252Z,0.50
2018-09-14T01:11:04.313Z,0.50
2018-09-14T01:12:04.252Z,0.10
2018-09-14T01:13:04.249Z,0.90
2018-09-14T01:14:04.310Z,0.60
2018-09-14T01:15:04.287Z,0.20
2018-09-14T01:16:04.276Z,0.50
2018-09-14T01:17:04.214Z,0.90
2018-09-14T01:18:04.223Z,0.60
2018-09-14T01:19:04.185Z,0.60
2018-09-14T01:20:04.201Z,0.40
2018-09-14T01:21:04.273Z,0.60
2018-09-14T01:22:04.149Z,1.00
2018-09-14T01:23:04.204Z,1.10
2018-09-14T01:24:04.193Z,0.50
2018-09-14T01:25:04.196Z,0.60
2018-09-14T01:26:04.216Z,0.40
2018-09-14T01:27:04.294Z,0.20
2018-09-14T01:28:04.180Z,0.30
2018-09-14T01:29:04.315Z,0.00
2018-09-14T01:30:04.272Z,0.30
2018-09-14T01:31:04.273Z,0.30
2018-09-14T01:32:04.222Z,0.30
2018-09-14T01:33:04.321Z,0.40
2018-09-14T01:34:04.308Z,0.30
2018-09-14T01:35:04.288Z,0.30
2018-09-14T01:36:04.233Z,0.30
2018-09-14T01:37:04.263Z,0.50
2018-09-14T01:38:04.215Z,0.30
2018-09-14T01:39:04.258Z,0.20
2018-09-14T01:40:04.258Z,0.10
2018-09-14T01:41:04.196Z,0.80
2018-09-14T01:42:04.190Z,0.60
2018-09-14T01:43:04.278Z,0.00
2018-09-14T01:44:04.269Z,0.40
2018-09-14T01:45:04.268Z,0.50
2018-09-14T01:46:04.267Z,0.30
2018-09-14T01:47:04.243Z,0.60
2018-09-14T01:48:04.206Z,0.90
2018-09-14T01:49:04.173Z,0.90
2018-09-14T01:50:04.338Z,0.60
2018-09-14T01:51:04.247Z,0.70
2018-09-14T01:52:04.215Z,0.60
2018-09-14T01:53:04.211Z,0.90
2018-09-14T01:54:04.181Z,0.30
2018-09-14T01:55:04.197Z,0.10
2018-09-14T01:56:04.232Z,0.30
2018-09-14T01:57:04.242Z,0.60
2018-09-14T01:58:04.287Z,0.30
2018-09-14T01:59:04.294Z,0.30
2018-09-14T02:00:04.349Z,0.70
2018-09-14T02:01:04.222Z,0.90
2018-09-14T02:02:04.300Z,0.70
2018-09-14T02:03:04.212Z,0.30
2018-09-14T02:04:04.283Z,0.50
2018-09-14T02:05:04.251Z,0.20
2018-09-14T02:06:04.345Z,0.00
2018-09-14T02:07:04.317Z,0.60
2018-09-14T02:08:04.326Z,0.90
2018-09-14T02:09:04.188Z,1.00
2018-09-14T02:10:04.287Z,1.00
2018-09-14T02:11:04.345Z,0.70
2018-09-14T02:12:04.260Z,0.70
2018-09-14T02:13:04.312Z,0.90
2018-09-14T02:14:04.305Z,0.40
2018-09-14T02:15:04.334Z,0.60
2018-09-14T02:16:04.219Z,1.30
2018-09-14T02:17:04.217Z,0.70
2018-09-14T02:18:04.297Z,0.00
2018-09-14T02:19:04.327Z,0.00
2018-09-14T02:20:04.365Z,0.00
2018-09-14T02:21:04.360Z,0.10
2018-09-14T02:22:04.331Z,0.10
2018-09-14T02:23:04.262Z,0.20
2018-09-14T02:24:04.310Z,0.60
2018-09-14T02:25:04.214Z,0.00
2018-09-14T02:26:04.317Z,0.00
2018-09-14T02:27:04.302Z,0.40
2018-09-14T02:28:04.275Z,1.00
2018-09-14T02:29:04.206Z,0.40
2018-09-14T02:30:04.234Z,0.10
2018-09-14T02:31:04.334Z,0.00
2018-09-14T02:32:04.275Z,0.00
2018-09-14T02:33:04.267Z,0.40
2018-09-14T02:34:04.246Z,0.30
2018-09-14T02:35:04.267Z,0.40
2018-09-14T02:36:04.303Z,0.60
2018-09-14T02:37:04.241Z,0.80
2018-09-14T02:38:04.239Z,0.40
2018-09-14T02:39:04.263Z,0.10
2018-09-14T02:40:04.238Z,0.00
2018-09-14T02:41:04.308Z,0.00
2018-09-14T02:42:04.239Z,0.00
2018-09-14T02:43:04.328Z,0.10
2018-09-14T02:44:04.244Z,0.80
2018-09-14T02:45:04.197Z,1.10
2018-09-14T02:46:04.243Z,1.50
2018-09-14T02:47:04.249Z,0.80
2018-09-14T02:48:04.321Z,0.80
2018-09-14T02:49:04.219Z,0.90
2018-09-14T02:50:04.210Z,1.70
2018-09-14T02:51:04.252Z,0.80
2018-09-14T02:52:04.247Z,0.10
2018-09-14T02:53:04.253Z,1.10
2018-09-14T02:54:04.343Z,0.00
2018-09-14T02:55:04.268Z,0.60
2018-09-14T02:56:04.271Z,0.50
2018-09-14T02:57:04.304Z,0.40
2018-09-14T02:58:04.267Z,0.40
2018-09-14T02:59:04.359Z,0.50
2018-09-14T03:00:04.349Z,0.20
2018-09-14T03:01:04.369Z,0.90
2018-09-14T03:02:04.296Z,0.50
2018-09-14T03:03:04.361Z,1.50
2018-09-14T03:04:04.358Z,0.70
2018-09-14T03:05:04.252Z,0.90
2018-09-14T03:06:04.300Z,0.50
2018-09-14T03:07:04.322Z,0.50
2018-09-14T03:08:04.390Z,0.10
2018-09-14T03:09:04.325Z,0.70
2018-09-14T03:10:04.224Z,0.90
2018-09-14T03:11:04.281Z,0.60
2018-09-14T03:12:04.260Z,0.60
2018-09-14T03:13:04.327Z,0.70
2018-09-14T03:14:04.268Z,0.70
2018-09-14T03:15:04.267Z,1.20
2018-09-14T03:16:04.338Z,0.70
2018-09-14T03:17:04.232Z,0.90
2018-09-14T03:18:04.258Z,0.50
2018-09-14T03:19:04.204Z,0.60
2018-09-14T03:20:04.243Z,1.30
2018-09-14T03:21:04.347Z,1.10
2018-09-14T03:22:04.278Z,1.50
2018-09-14T03:23:04.311Z,1.50
2018-09-14T03:24:04.280Z,1.10
2018-09-14T03:25:04.274Z,1.10
2018-09-14T03:26:04.325Z,1.00
2018-09-14T03:27:04.400Z,1.50
2018-09-14T03:28:04.343Z,1.10
2018-09-14T03:29:04.345Z,0.80
2018-09-14T03:30:04.320Z,1.00
2018-09-14T03:31:04.471Z,0.30
2018-09-14T03:32:04.372Z,0.80
2018-09-14T03:33:04.271Z,0.50
2018-09-14T03:34:04.385Z,0.80
2018-09-14T03:35:04.324Z,0.60
2018-09-14T03:36:04.265Z,0.80
2018-09-14T03:37:04.359Z,0.80
2018-09-14T03:38:04.298Z,0.80
2018-09-14T03:39:04.307Z,0.40
2018-09-14T03:40:04.301Z,0.40
2018-09-14T03:41:04.369Z,0.80
2018-09-14T03:42:04.288Z,0.80
2018-09-14T03:43:04.416Z,0.70
2018-09-14T03:44:04.367Z,0.50
2018-09-14T03:45:04.367Z,0.50
2018-09-14T03:46:04.320Z,0.80
2018-09-14T03:47:04.319Z,0.40
2018-09-14T03:48:04.354Z,0.40
2018-09-14T03:49:04.253Z,1.00
2018-09-14T03:50:04.290Z,0.30
2018-09-14T03:51:04.287Z,0.50
2018-09-14T03:52:04.223Z,0.20
2018-09-14T03:53:04.344Z,0.70
2018-09-14T03:54:04.267Z,0.20
2018-09-14T03:55:04.346Z,0.60
2018-09-14T03:56:04.345Z,0.20
2018-09-14T03:57:04.324Z,0.10
2018-09-14T03:58:04.307Z,0.10
2018-09-14T03:59:04.309Z,0.10
2018-09-14T04:00:04.277Z,0.00
2018-09-14T04:01:04.312Z,0.00
2018-09-14T04:02:04.327Z,0.40
2018-09-14T04:03:04.355Z,0.30
2018-09-14T04:04:04.224Z,0.60
2018-09-14T04:05:04.328Z,0.50
2018-09-14T04:06:04.305Z,0.60
2018-09-14T04:07:04.404Z,0.60
2018-09-14T04:08:04.403Z,0.30
2018-09-14T04:09:04.401Z,0.20
2018-09-14T04:10:04.416Z,0.60
2018-09-14T04:11:04.408Z,0.60
2018-09-14T04:12:04.295Z,0.20
2018-09-14T04:13:04.306Z,0.60
2018-09-14T04:14:04.392Z,0.10
2018-09-14T04:15:04.347Z,0.20
2018-09-14T04:16:04.412Z,0.00
2018-09-14T04:17:04.376Z,0.00
2018-09-14T04:18:04.326Z,0.20
2018-09-14T04:19:04.297Z,0.00
2018-09-14T04:20:04.364Z,0.00
2018-09-14T04:21:04.303Z,0.00
2018-09-14T04:22:04.303Z,0.10
2018-09-14T04:23:04.366Z,0.20
2018-09-14T04:24:04.425Z,0.40
2018-09-14T04:25:04.418Z,0.00
2018-09-14T04:26:04.390Z,0.00
2018-09-14T04:27:04.358Z,0.30
2018-09-14T04:28:04.405Z,0.50
2018-09-14T04:29:04.343Z,0.40
2018-09-14T04:30:04.383Z,0.00
2018-09-14T04:31:04.383Z,0.00
2018-09-14T04:32:04.420Z,0.00
2018-09-14T04:33:04.340Z,0.40
2018-09-14T04:34:04.327Z,0.10
2018-09-14T04:35:04.336Z,0.00
2018-09-14T04:36:04.354Z,0.50
2018-09-14T04:37:04.430Z,0.70
2018-09-14T04:38:04.450Z,0.00
2018-09-14T04:39:04.360Z,0.00
2018-09-14T04:40:04.323Z,0.00
2018-09-14T04:41:04.427Z,0.00
2018-09-14T04:42:04.305Z,0.20
2018-09-14T04:43:04.342Z,0.00
2018-09-14T04:44:04.410Z,0.00
2018-09-14T04:45:04.362Z,0.00
2018-09-14T04:46:04.429Z,0.00
2018-09-14T04:47:04.459Z,0.00
2018-09-14T04:48:04.366Z,0.00
2018-09-14T04:49:04.358Z,0.00
2018-09-14T04:50:04.358Z,0.50
2018-09-14T04:51:04.421Z,0.20
2018-09-14T04:52:04.432Z,0.20
2018-09-14T04:53:04.379Z,0.10
2018-09-14T04:54:04.375Z,0.10
2018-09-14T04:55:04.302Z,0.00
2018-09-14T04:56:04.417Z,0.20
2018-09-14T04:57:04.416Z,0.00
2018-09-14T04:58:04.369Z,0.10
2018-09-14T04:59:04.419Z,0.00
2018-09-14T05:00:04.404Z,0.00
2018-09-14T05:01:04.418Z,0.00
2018-09-14T05:02:04.421Z,0.00
2018-09-14T05:03:04.362Z,0.00
2018-09-14T05:04:04.428Z,0.10
2018-09-14T05:05:04.379Z,0.40
2018-09-14T05:06:04.362Z,0.80
2018-09-14T05:07:04.496Z,0.60
2018-09-14T05:08:04.356Z,0.00
2018-09-14T05:09:04.361Z,0.00
2018-09-14T05:10:04.426Z,0.20
2018-09-14T05:11:04.424Z,0.10
2018-09-14T05:12:04.418Z,0.20
2018-09-14T05:13:04.363Z,0.50
2018-09-14T05:14:04.456Z,0.60
2018-09-14T05:15:04.359Z,0.50
2018-09-14T05:16:04.424Z,0.40
2018-09-14T05:17:04.352Z,0.00
2018-09-14T05:18:04.316Z,0.00
2018-09-14T05:19:04.378Z,0.00
2018-09-14T05:20:04.435Z,0.00
2018-09-14T05:21:04.439Z,0.00
2018-09-14T05:22:04.398Z,0.00
2018-09-14T05:23:04.359Z,0.00
2018-09-14T05:24:04.493Z,0.00
2018-09-14T05:25:04.568Z,0.00
2018-09-14T05:26:04.447Z,0.00
2018-09-14T05:27:04.401Z,0.00
2018-09-14T05:28:04.458Z,0.00
2018-09-14T05:29:04.373Z,0.00
2018-09-14T05:30:04.403Z,0.00
2018-09-14T05:31:04.392Z,0.00
2018-09-14T05:32:04.440Z,0.00
2018-09-14T05:33:04.396Z,0.00
2018-09-14T05:34:04.351Z,0.00
2018-09-14T05:35:04.490Z,0.00
2018-09-14T05:36:04.340Z,0.00
2018-09-14T05:37:04.445Z,0.00
2018-09-14T05:38:04.445Z,0.00
2018-09-14T05:39:04.407Z,0.00
2018-09-14T05:40:04.405Z,0.00
2018-09-14T05:41:04.407Z,0.00
2018-09-14T05:42:04.448Z,0.00
2018-09-14T05:43:04.481Z,0.40
2018-09-14T05:44:04.480Z,0.40
2018-09-14T05:45:04.438Z,0.40
2018-09-14T05:46:04.481Z,0.40
2018-09-14T05:47:04.477Z,1.10
2018-09-14T05:48:04.444Z,0.50
2018-09-14T05:49:04.456Z,0.00
2018-09-14T05:50:04.452Z,0.00
2018-09-14T05:51:04.444Z,0.00
2018-09-14T05:52:04.415Z,0.00
2018-09-14T05:53:04.455Z,0.00
2018-09-14T05:54:04.383Z,0.00
2018-09-14T05:55:04.460Z,0.00
2018-09-14T05:57:04.483Z,0.10
2018-09-14T05:58:04.425Z,0.90
2018-09-14T05:59:04.404Z,0.60
2018-09-14T06:00:04.414Z,0.30
2018-09-14T06:01:04.417Z,1.80
2018-09-14T06:02:04.417Z,1.00
2018-09-14T06:03:04.408Z,1.90
2018-09-14T06:04:04.471Z,2.30
2018-09-14T06:05:04.513Z,1.30
2018-09-14T06:06:04.435Z,1.40
2018-09-14T06:07:04.365Z,1.50
2018-09-14T06:08:04.422Z,0.60
2018-09-14T06:09:04.517Z,0.50
2018-09-14T06:10:04.380Z,0.60
2018-09-14T06:11:04.504Z,0.90
2018-09-14T06:12:04.457Z,0.70
2018-09-14T06:13:04.479Z,0.80
2018-09-14T06:14:04.501Z,1.10
2018-09-14T06:15:04.440Z,0.50
2018-09-14T06:16:04.524Z,1.00
2018-09-14T06:17:04.542Z,0.80
2018-09-14T06:18:04.400Z,0.80
2018-09-14T06:19:04.457Z,1.20
2018-09-14T06:20:04.452Z,0.50
2018-09-14T06:21:04.419Z,0.00
2018-09-14T06:22:04.392Z,0.00
2018-09-14T06:23:04.508Z,0.20
2018-09-14T06:24:04.341Z,0.40
2018-09-14T06:25:04.367Z,0.40
2018-09-14T06:26:04.393Z,0.00
2018-09-14T06:27:04.407Z,0.00
2018-09-14T06:28:04.465Z,0.30
2018-09-14T06:29:04.410Z,0.90
2018-09-14T06:30:04.388Z,0.30
2018-09-14T06:31:04.391Z,0.00
2018-09-14T06:32:04.468Z,0.00
2018-09-14T06:33:04.394Z,0.00
2018-09-14T06:34:04.467Z,0.00
2018-09-14T06:35:04.469Z,0.60
2018-09-14T06:36:04.374Z,0.60
2018-09-14T06:37:04.433Z,1.00
2018-09-14T06:38:04.478Z,1.40
2018-09-14T06:39:04.399Z,0.00
2018-09-14T06:40:04.394Z,0.70
2018-09-14T06:41:04.384Z,1.80
2018-09-14T06:42:04.474Z,1.40
2018-09-14T06:43:04.473Z,1.90
2018-09-14T06:44:04.417Z,1.10
2018-09-14T06:45:04.518Z,0.90
2018-09-14T06:46:04.478Z,0.40
2018-09-14T06:47:04.381Z,0.50
2018-09-14T06:48:04.421Z,0.20
2018-09-14T06:49:04.465Z,0.30
2018-09-14T06:50:04.510Z,0.10
2018-09-14T06:51:04.489Z,0.10
2018-09-14T06:53:04.528Z,0.00
2018-09-14T06:54:04.432Z,0.00
2018-09-14T06:55:04.492Z,0.00
2018-09-14T06:56:04.396Z,0.00
2018-09-14T06:57:04.459Z,0.70
2018-09-14T06:58:04.429Z,0.30
2018-09-14T06:59:04.425Z,0.00
2018-09-14T07:00:04.531Z,0.00
2018-09-14T07:01:04.427Z,0.00
2018-09-14T07:02:04.501Z,0.20
2018-09-14T07:03:04.443Z,0.10
2018-09-14T07:04:04.427Z,0.50
2018-09-14T07:05:04.459Z,0.70
2018-09-14T07:06:04.502Z,0.90
2018-09-14T07:07:04.494Z,1.40
2018-09-14T07:08:04.466Z,0.70
2018-09-14T07:09:04.434Z,0.40
2018-09-14T07:10:04.503Z,1.60
2018-09-14T07:11:04.508Z,0.40
2018-09-14T07:12:04.462Z,1.40
2018-09-14T07:13:04.454Z,0.70
2018-09-14T07:14:04.509Z,0.60
2018-09-14T07:15:04.506Z,1.00
2018-09-14T07:16:04.497Z,0.70
2018-09-14T07:17:04.441Z,1.00
2018-09-14T07:18:04.433Z,0.70
2018-09-14T07:19:04.412Z,0.50
2018-09-14T07:20:04.424Z,0.40
2018-09-14T07:21:04.501Z,0.30
2018-09-14T07:22:04.433Z,0.20
2018-09-14T07:23:04.390Z,0.70
2018-09-14T07:24:04.504Z,2.60
2018-09-14T07:25:04.409Z,0.60
2018-09-14T07:26:04.444Z,1.00
2018-09-14T07:27:04.531Z,0.40
2018-09-14T07:28:04.431Z,0.00
2018-09-14T07:29:04.652Z,0.10
2018-09-14T07:30:04.453Z,0.60
2018-09-14T07:31:04.485Z,0.60
2018-09-14T07:32:04.482Z,0.40
2018-09-14T07:33:04.550Z,0.00
2018-09-14T07:34:04.437Z,0.10
2018-09-14T07:35:04.540Z,0.00
2018-09-14T07:36:04.552Z,0.00
2018-09-14T07:37:04.479Z,0.10
2018-09-14T07:38:04.447Z,0.10
2018-09-14T07:39:04.422Z,1.30
2018-09-14T07:40:04.422Z,0.80
2018-09-14T07:41:04.516Z,0.20
2018-09-14T07:42:04.401Z,1.80
2018-09-14T07:43:04.489Z,0.90
2018-09-14T07:44:04.423Z,1.00
2018-09-14T07:45:04.398Z,1.30
2018-09-14T07:46:04.447Z,0.90
2018-09-14T07:47:04.483Z,0.10
2018-09-14T07:48:04.460Z,0.50
2018-09-14T07:49:04.532Z,0.80
2018-09-14T07:50:04.531Z,0.10
2018-09-14T07:51:04.459Z,0.10
2018-09-14T07:52:04.535Z,0.00
2018-09-14T07:53:04.462Z,1.00
2018-09-14T07:54:04.538Z,0.50
2018-09-14T07:55:04.425Z,0.30
2018-09-14T07:56:04.465Z,1.30
2018-09-14T07:57:04.559Z,1.00
2018-09-14T07:58:04.527Z,0.10
2018-09-14T07:59:04.531Z,0.80
2018-09-14T08:00:04.458Z,0.40
2018-09-14T08:01:04.428Z,0.70
2018-09-14T08:02:04.457Z,1.20
2018-09-14T08:03:04.453Z,0.40
2018-09-14T08:04:04.479Z,0.20
2018-09-14T08:05:04.457Z,0.10
2018-09-14T08:06:04.534Z,0.10
2018-09-14T08:07:04.504Z,1.00
2018-09-14T08:08:04.547Z,0.00
2018-09-14T08:09:04.527Z,0.20
2018-09-14T08:10:04.504Z,0.80
2018-09-14T08:11:04.518Z,0.00
2018-09-14T08:12:04.533Z,0.00
2018-09-14T08:13:04.591Z,0.00
2018-09-14T08:14:04.568Z,0.00
2018-09-14T08:15:04.509Z,0.50
2018-09-14T08:16:04.452Z,0.70
2018-09-14T08:17:04.588Z,0.00
2018-09-14T08:18:04.568Z,0.00
2018-09-14T08:19:04.497Z,0.00
2018-09-14T08:20:04.543Z,0.00
2018-09-14T08:21:04.611Z,0.10
2018-09-14T08:22:04.688Z,0.20
2018-09-14T08:23:04.526Z,0.00
2018-09-14T08:24:04.455Z,0.20
2018-09-14T08:25:04.556Z,0.00
2018-09-14T08:26:04.583Z,0.00
2018-09-14T08:27:04.547Z,0.00
2018-09-14T08:28:04.544Z,0.00
2018-09-14T08:29:04.489Z,0.20
2018-09-14T08:30:04.521Z,0.20
2018-09-14T08:31:04.484Z,0.00
2018-09-14T08:32:04.517Z,0.00
2018-09-14T08:33:04.458Z,0.00
2018-09-14T08:34:04.488Z,0.30
2018-09-14T08:35:04.496Z,0.00
2018-09-14T08:36:04.464Z,0.00
2018-09-14T08:37:04.554Z,0.00
2018-09-14T08:38:04.511Z,0.00
2018-09-14T08:39:04.571Z,0.00
2018-09-14T08:40:04.499Z,0.60
2018-09-14T08:41:04.496Z,0.30
2018-09-14T08:42:04.499Z,0.60
2018-09-14T08:43:04.569Z,0.40
2018-09-14T08:44:04.502Z,0.40
2018-09-14T08:45:04.606Z,0.70
2018-09-14T08:46:04.571Z,0.40
2018-09-14T08:47:04.502Z,1.10
2018-09-14T08:48:04.634Z,1.90
2018-09-14T08:49:04.553Z,1.00
2018-09-14T08:50:04.577Z,1.40
2018-09-14T08:51:04.590Z,1.30
2018-09-14T08:52:04.573Z,1.00
2018-09-14T08:53:04.595Z,0.50
2018-09-14T08:54:04.629Z,0.20
2018-09-14T08:55:04.541Z,0.20
2018-09-14T08:56:04.505Z,0.50
2018-09-14T08:57:04.495Z,0.00
2018-09-14T08:58:04.680Z,0.20
2018-09-14T08:59:04.579Z,0.30
2018-09-14T09:00:04.580Z,0.40
2018-09-14T09:01:04.648Z,1.10
2018-09-14T09:02:04.496Z,1.60
2018-09-14T09:03:04.517Z,0.50
2018-09-14T09:04:04.555Z,0.00
2018-09-14T09:05:04.619Z,0.70
2018-09-14T09:06:04.559Z,0.30
2018-09-14T09:07:04.626Z,0.90
2018-09-14T09:08:04.495Z,0.30
2018-09-14T09:09:04.639Z,0.00
2018-09-14T09:10:04.583Z,0.60
2018-09-14T09:11:04.608Z,0.30
2018-09-14T09:12:04.626Z,0.30
2018-09-14T09:13:04.601Z,0.70
2018-09-14T09:14:04.612Z,0.40
2018-09-14T09:15:04.614Z,0.50
2018-09-14T09:16:04.507Z,0.00
2018-09-14T09:17:04.592Z,0.10
2018-09-14T09:18:04.594Z,0.30
2018-09-14T09:19:04.593Z,0.50
2018-09-14T09:20:04.595Z,0.20
2018-09-14T09:21:04.531Z,0.20
2018-09-14T09:22:04.655Z,0.20
2018-09-14T09:23:04.614Z,0.90
2018-09-14T09:24:04.596Z,0.30
2018-09-14T09:25:04.595Z,0.20
2018-09-14T09:26:04.600Z,1.20
2018-09-14T09:27:04.600Z,0.70
2018-09-14T09:28:04.575Z,0.40
2018-09-14T09:29:04.488Z,0.20
2018-09-14T09:30:04.580Z,0.80
2018-09-14T09:31:04.472Z,0.10
2018-09-14T09:32:04.581Z,0.80
2018-09-14T09:33:04.596Z,0.00
2018-09-14T09:34:04.570Z,0.30
2018-09-14T09:35:04.567Z,0.00
2018-09-14T09:36:04.588Z,0.10
2018-09-14T09:37:04.478Z,0.70
2018-09-14T09:38:04.621Z,1.20
2018-09-14T09:39:04.541Z,0.00
2018-09-14T09:40:04.542Z,0.60
2018-09-14T09:41:04.539Z,0.20
2018-09-14T09:42:04.612Z,0.30
2018-09-14T09:43:04.711Z,0.00
2018-09-14T09:44:04.554Z,0.00
2018-09-14T09:45:04.607Z,0.00
2018-09-14T09:46:04.618Z,0.00
2018-09-14T09:47:04.543Z,0.10
2018-09-14T09:48:04.531Z,0.00
2018-09-14T09:49:04.537Z,0.00
2018-09-14T09:50:04.535Z,0.00
2018-09-14T09:51:04.690Z,0.00
2018-09-14T09:52:04.608Z,0.30
2018-09-14T09:53:04.531Z,0.00
2018-09-14T09:54:04.544Z,0.00
2018-09-14T09:55:04.609Z,0.00
2018-09-14T09:56:04.524Z,0.00
2018-09-14T09:57:04.580Z,0.60
2018-09-14T09:58:04.721Z,0.10
2018-09-14T09:59:04.523Z,0.00
2018-09-14T10:00:04.641Z,0.00
2018-09-14T10:01:04.650Z,0.00
2018-09-14T10:02:04.648Z,0.00
2018-09-14T10:03:04.546Z,0.00
2018-09-14T10:04:04.735Z,0.20
2018-09-14T10:05:04.565Z,0.40
2018-09-14T10:06:04.652Z,0.00
2018-09-14T10:07:04.606Z,0.20
2018-09-14T10:08:04.641Z,0.20
2018-09-14T10:09:04.572Z,0.00
2018-09-14T10:10:04.694Z,0.00
2018-09-14T10:11:04.568Z,0.20
2018-09-14T10:12:04.638Z,0.00
2018-09-14T10:13:04.634Z,0.00
2018-09-14T10:14:04.703Z,0.00
2018-09-14T10:15:04.575Z,0.10
2018-09-14T10:16:04.567Z,0.00
2018-09-14T10:17:04.636Z,0.50
2018-09-14T10:18:04.639Z,0.00
2018-09-14T10:19:04.561Z,0.00
2018-09-14T10:20:04.665Z,0.10
2018-09-14T10:21:04.624Z,0.90
2018-09-14T10:22:04.602Z,0.60
2018-09-14T10:23:04.683Z,0.20
2018-09-14T10:24:04.559Z,0.00
2018-09-14T10:25:04.639Z,0.00
2018-09-14T10:26:04.677Z,0.10
2018-09-14T10:27:04.677Z,0.10
2018-09-14T10:28:04.544Z,0.00
2018-09-14T10:29:04.625Z,0.00
2018-09-14T10:30:04.562Z,0.00
2018-09-14T10:31:04.643Z,0.00
2018-09-14T10:32:04.549Z,0.00
2018-09-14T10:33:04.567Z,0.00
2018-09-14T10:34:04.787Z,0.00
2018-09-14T10:35:04.655Z,0.00
2018-09-14T10:36:04.547Z,0.00
2018-09-14T10:37:04.570Z,0.00
2018-09-14T10:38:04.610Z,0.00
2018-09-14T10:39:04.605Z,0.00
2018-09-14T10:40:04.730Z,0.22
2018-09-14T10:41:04.653Z,0.30
2018-09-14T10:42:04.652Z,0.00
2018-09-14T10:43:04.653Z,0.14
2018-09-14T10:44:04.651Z,0.00
2018-09-14T10:45:04.719Z,0.00
2018-09-14T10:46:04.596Z,0.00
2018-09-14T10:47:04.667Z,0.00
2018-09-14T10:48:04.584Z,0.00
2018-09-14T10:49:04.592Z,0.00
2018-09-14T10:50:04.676Z,0.00
2018-09-14T10:51:04.652Z,0.00
2018-09-14T10:52:04.648Z,0.00
2018-09-14T10:53:04.549Z,0.00
2018-09-14T10:54:04.611Z,0.00
2018-09-14T10:55:04.656Z,0.00
2018-09-14T10:56:04.651Z,0.00
2018-09-14T10:57:04.535Z,0.00
2018-09-14T10:58:04.569Z,0.00
2018-09-14T10:59:04.580Z,0.00
2018-09-14T11:00:04.656Z,0.00
2018-09-14T11:01:04.567Z,0.00
2018-09-14T11:02:04.658Z,0.00
2018-09-14T11:03:04.581Z,0.00
2018-09-14T11:04:04.660Z,0.31
2018-09-14T11:05:04.662Z,0.00
2018-09-14T11:06:04.588Z,0.00
2018-09-14T11:07:04.738Z,0.00
2018-09-14T11:08:04.666Z,0.05
2018-09-14T11:09:04.673Z,0.00
2018-09-14T11:10:04.699Z,0.00
2018-09-14T11:11:04.676Z,0.00
2018-09-14T11:12:04.627Z,0.00
2018-09-14T11:13:04.775Z,0.00
2018-09-14T11:14:04.679Z,0.00
2018-09-14T11:15:04.568Z,0.00
2018-09-14T11:16:04.679Z,0.06
2018-09-14T11:17:04.673Z,0.22
2018-09-14T11:18:04.697Z,0.00
2018-09-14T11:19:04.688Z,0.00
2018-09-14T11:20:04.614Z,0.00
2018-09-14T11:21:04.679Z,0.00
2018-09-14T11:22:04.612Z,0.00
2018-09-14T11:23:04.627Z,0.00
2018-09-14T11:24:04.691Z,0.00
2018-09-14T11:25:04.713Z,0.00
2018-09-14T11:26:04.703Z,0.00
2018-09-14T11:27:04.616Z,0.00
2018-09-14T11:28:04.837Z,0.00
2018-09-14T11:29:04.683Z,0.00
2018-09-14T11:30:04.684Z,0.00
2018-09-14T11:31:04.659Z,0.00
2018-09-14T11:32:04.720Z,0.00
2018-09-14T11:33:04.698Z,0.00
2018-09-14T11:34:04.642Z,0.00
2018-09-14T11:35:04.653Z,0.00
2018-09-14T11:36:04.610Z,0.00
2018-09-14T11:37:04.748Z,0.00
2018-09-14T11:38:04.696Z,0.00
2018-09-14T11:39:04.635Z,0.00
2018-09-14T11:40:04.591Z,0.00
2018-09-14T11:41:04.726Z,0.00
2018-09-14T11:42:04.690Z,0.00
2018-09-14T11:43:04.690Z,0.00
2018-09-14T11:44:04.624Z,0.00
2018-09-14T11:45:04.758Z,0.00
2018-09-14T11:46:04.721Z,0.00
2018-09-14T11:47:04.750Z,0.00
2018-09-14T11:48:04.595Z,0.00
2018-09-14T11:49:04.627Z,0.00
2018-09-14T11:50:04.603Z,0.00
2018-09-14T11:51:04.625Z,0.00
2018-09-14T11:52:04.692Z,0.00
2018-09-14T11:53:04.687Z,0.00
2018-09-14T11:54:04.645Z,0.00
2018-09-14T11:55:04.604Z,0.00
2018-09-14T11:56:04.690Z,0.00
2018-09-14T11:57:04.645Z,0.00
2018-09-14T11:58:04.690Z,0.00
2018-09-14T11:59:04.716Z,0.00
2018-09-14T12:00:04.710Z,0.00
2018-09-14T12:01:04.638Z,0.00
2018-09-14T12:02:04.718Z,0.00
2018-09-14T12:03:04.713Z,0.00
2018-09-14T12:04:04.739Z,0.00
2018-09-14T12:05:04.642Z,0.00
2018-09-14T12:06:04.775Z,0.00
2018-09-14T12:07:04.656Z,0.00
2018-09-14T12:08:04.713Z,0.00
2018-09-14T12:09:04.630Z,0.00
2018-09-14T12:10:04.638Z,0.00
2018-09-14T12:11:04.708Z,0.00
2018-09-14T12:12:04.702Z,0.14
2018-09-14T12:13:04.617Z,0.00
2018-09-14T12:14:04.796Z,0.00
2018-09-14T12:15:04.709Z,0.00
2018-09-14T12:16:04.621Z,0.00
2018-09-14T12:17:04.639Z,0.00
2018-09-14T12:18:04.637Z,0.00
2018-09-14T12:19:04.690Z,0.00
2018-09-14T12:20:04.635Z,0.00
2018-09-14T12:21:04.719Z,0.00
2018-09-14T12:22:04.715Z,0.00
2018-09-14T12:23:04.740Z,0.00
2018-09-14T12:24:04.677Z,0.50
2018-09-14T12:25:04.683Z,0.00
2018-09-14T12:26:04.767Z,0.00
2018-09-14T12:27:04.661Z,0.00
2018-09-14T12:28:04.742Z,0.00
2018-09-14T12:29:04.692Z,0.00
2018-09-14T12:30:04.695Z,0.00
2018-09-14T12:31:04.753Z,0.00
2018-09-14T12:32:04.682Z,0.00
2018-09-14T12:33:04.695Z,0.60
2018-09-14T12:34:04.671Z,0.30
2018-09-14T12:35:04.689Z,0.70
2018-09-14T12:36:04.658Z,0.70
2018-09-14T12:37:04.635Z,0.00
2018-09-14T12:38:04.735Z,0.00
2018-09-14T12:39:04.768Z,0.00
2018-09-14T12:40:04.741Z,0.00
2018-09-14T12:41:04.684Z,0.00
2018-09-14T12:42:04.818Z,0.00
2018-09-14T12:43:04.692Z,0.00
2018-09-14T12:44:04.773Z,0.00
2018-09-14T12:45:04.737Z,0.00
2018-09-14T12:46:04.662Z,0.00
2018-09-14T12:47:04.664Z,0.00
2018-09-14T12:48:04.713Z,0.05
2018-09-14T12:49:04.768Z,0.00
2018-09-14T12:50:04.661Z,0.00
2018-09-14T12:51:04.783Z,0.00
2018-09-14T12:52:04.687Z,0.00
2018-09-14T12:53:04.742Z,0.00
2018-09-14T12:54:04.665Z,0.00
2018-09-14T12:55:04.747Z,0.00
2018-09-14T12:56:04.661Z,0.00
2018-09-14T12:57:04.726Z,0.00
2018-09-14T12:58:04.808Z,0.00
2018-09-14T12:59:04.769Z,0.00
2018-09-14T13:00:04.747Z,0.07
2018-09-14T13:01:04.749Z,0.00
2018-09-14T13:02:04.682Z,0.00
2018-09-14T13:03:04.755Z,0.00
2018-09-14T13:04:04.716Z,0.00
2018-09-14T13:05:04.648Z,0.00
2018-09-14T13:06:04.758Z,0.00
2018-09-14T13:07:04.754Z,0.00
2018-09-14T13:08:04.692Z,0.00
2018-09-14T13:09:04.752Z,0.00
2018-09-14T13:10:04.663Z,0.00
2018-09-14T13:11:04.774Z,0.00
2018-09-14T13:12:04.680Z,0.00
2018-09-14T13:13:04.706Z,0.00
2018-09-14T13:14:04.787Z,0.40
2018-09-14T13:15:04.783Z,0.10
2018-09-14T13:16:04.803Z,0.00
2018-09-14T13:17:04.773Z,0.00
2018-09-14T13:18:04.764Z,0.06
2018-09-14T13:19:04.763Z,0.00
2018-09-14T13:20:04.717Z,0.00